EGPB/LSI METAR and TAF weather

Enter ICAO airport designator
Station Type Date Time Source
EGPB METAR 2019/10/21 23:20 UTC NOAA

EGPB 212320Z AUTO 24028KT 4100 RA OVC015/// 10/08 Q1007


Station Type Date Time Source
EGPB Decoded METAR 2019/10/21 23:20 UTC NOAA

Sumburgh Cape , United Kingdom (EGPB) 59-53N 001-18W
Oct 21, 2019 - 07:20 PM EDT / 2019.10.21 2320 UTC
Wind: from the WSW (240 degrees) at 32 MPH (28 KT):0
Visibility: 2 mile(s):0
Sky conditions: overcast
Weather: rain
Temperature: 50 F (10 C)
Dew Point: 46 F (8 C)
Relative Humidity: 87%
Pressure (altimeter): 29.74 in. Hg (1007 hPa)
ob: EGPB 212320Z AUTO 24028KT 4100 RA OVC015/// 10/08 Q1007
cycle: 23

Station Type Date Time Source
EGPB TAF UTC NOAA

Error!

Example: see airport list